sensor_id;sensor_type;location;lat;lon;timestamp;pressure;altitude;pressure_sealevel;temperature;humidity
20942;BME280;10630;53.734;10.282;2023-02-04T00:00:32;102395.22;;;6.71;85.02
20942;BME280;10630;53.734;10.282;2023-02-04T00:03:02;102402.28;;;6.01;86.42
20942;BME280;10630;53.734;10.282;2023-02-04T00:05:29;102404.03;;;6.71;85.98
20942;BME280;10630;53.734;10.282;2023-02-04T00:07:57;102403.25;;;6.42;86.69
20942;BME280;10630;53.734;10.282;2023-02-04T00:10:25;102416.53;;;6.13;88.59
20942;BME280;10630;53.734;10.282;2023-02-04T00:12:52;102413.31;;;5.93;90.36
20942;BME280;10630;53.734;10.282;2023-02-04T00:15:18;102421.25;;;5.93;92.42
20942;BME280;10630;53.734;10.282;2023-02-04T00:17:46;102428.59;;;6.17;90.23
20942;BME280;10630;53.734;10.282;2023-02-04T00:20:14;102434.13;;;5.99;91.11
20942;BME280;10630;53.734;10.282;2023-02-04T00:22:42;102453.81;;;5.34;95.20
20942;BME280;10630;53.734;10.282;2023-02-04T00:25:10;102452.47;;;5.72;96.73
20942;BME280;10630;53.734;10.282;2023-02-04T00:27:38;102465.41;;;5.77;95.76
20942;BME280;10630;53.734;10.282;2023-02-04T00:30:06;102458.56;;;6.17;95.93
20942;BME280;10630;53.734;10.282;2023-02-04T00:32:33;102459.84;;;5.96;94.98
20942;BME280;10630;53.734;10.282;2023-02-04T00:35:01;102466.91;;;5.81;97.69
20942;BME280;10630;53.734;10.282;2023-02-04T00:37:30;102479.22;;;6.25;97.25
20942;BME280;10630;53.734;10.282;2023-02-04T00:39:58;102486.97;;;6.28;96.41
20942;BME280;10630;53.734;10.282;2023-02-04T00:42:25;102495.19;;;6.09;96.08
20942;BME280;10630;53.734;10.282;2023-02-04T00:44:53;102492.16;;;6.44;95.83
20942;BME280;10630;53.734;10.282;2023-02-04T00:47:21;102496.44;;;6.47;94.61
20942;BME280;10630;53.734;10.282;2023-02-04T00:49:48;102493.78;;;6.32;95.33
20942;BME280;10630;53.734;10.282;2023-02-04T00:52:14;102508.03;;;6.44;96.11
20942;BME280;10630;53.734;10.282;2023-02-04T00:54:41;102516.63;;;6.33;95.38
20942;BME280;10630;53.734;10.282;2023-02-04T00:57:08;102519.38;;;6.32;96.58
20942;BME280;10630;53.734;10.282;2023-02-04T00:59:35;102527.88;;;6.66;94.09
20942;BME280;10630;53.734;10.282;2023-02-04T01:02:02;102542.63;;;6.56;93.59
20942;BME280;10630;53.734;10.282;2023-02-04T01:04:30;102550.34;;;6.44;92.62
20942;BME280;10630;53.734;10.282;2023-02-04T01:06:58;102559.31;;;6.85;93.88
20942;BME280;10630;53.734;10.282;2023-02-04T01:09:25;102564.25;;;6.77;91.47
20942;BME280;10630;53.734;10.282;2023-02-04T01:11:52;102568.94;;;6.86;89.82
20942;BME280;10630;53.734;10.282;2023-02-04T01:14:20;102579.53;;;7.01;90.13
20942;BME280;10630;53.734;10.282;2023-02-04T01:16:46;102582.63;;;7.35;88.19
20942;BME280;10630;53.734;10.282;2023-02-04T01:19:13;102596.16;;;6.88;89.32
20942;BME280;10630;53.734;10.282;2023-02-04T01:21:41;102597.69;;;6.92;89.44
20942;BME280;10630;53.734;10.282;2023-02-04T01:24:08;102611.66;;;6.94;89.79
20942;BME280;10630;53.734;10.282;2023-02-04T01:26:35;102606.47;;;7.35;87.81
20942;BME280;10630;53.734;10.282;2023-02-04T01:29:03;102606.94;;;7.69;87.63
20942;BME280;10630;53.734;10.282;2023-02-04T01:31:29;102625.00;;;7.89;85.42
20942;BME280;10630;53.734;10.282;2023-02-04T01:33:58;102629.13;;;7.53;84.40
20942;BME280;10630;53.734;10.282;2023-02-04T01:36:24;102630.84;;;7.67;84.98
20942;BME280;10630;53.734;10.282;2023-02-04T01:38:51;102630.31;;;7.35;85.85
20942;BME280;10630;53.734;10.282;2023-02-04T01:41:19;102640.72;;;7.38;84.70
20942;BME280;10630;53.734;10.282;2023-02-04T01:43:46;102632.16;;;7.74;85.04
20942;BME280;10630;53.734;10.282;2023-02-04T01:46:14;102645.69;;;7.57;84.55
20942;BME280;10630;53.734;10.282;2023-02-04T01:48:41;102648.38;;;7.42;84.85
20942;BME280;10630;53.734;10.282;2023-02-04T01:51:09;102644.09;;;7.54;85.42
20942;BME280;10630;53.734;10.282;2023-02-04T01:53:38;102652.69;;;7.16;85.95
20942;BME280;10630;53.734;10.282;2023-02-04T01:58:43;102660.00;;;7.40;84.37
20942;BME280;10630;53.734;10.282;2023-02-04T02:01:10;102665.94;;;7.85;83.48
20942;BME280;10630;53.734;10.282;2023-02-04T02:03:40;102668.97;;;7.79;83.00
20942;BME280;10630;53.734;10.282;2023-02-04T02:06:07;102671.31;;;8.24;80.47
20942;BME280;10630;53.734;10.282;2023-02-04T02:08:35;102679.50;;;7.93;81.42
20942;BME280;10630;53.734;10.282;2023-02-04T02:11:02;102682.97;;;7.54;82.20
20942;BME280;10630;53.734;10.282;2023-02-04T02:13:29;102678.91;;;7.48;83.61
20942;BME280;10630;53.734;10.282;2023-02-04T02:15:55;102686.09;;;7.60;83.66
20942;BME280;10630;53.734;10.282;2023-02-04T02:18:22;102685.50;;;7.55;82.50
20942;BME280;10630;53.734;10.282;2023-02-04T02:20:50;102689.50;;;8.03;80.41
20942;BME280;10630;53.734;10.282;2023-02-04T02:23:23;102694.28;;;8.38;76.19
20942;BME280;10630;53.734;10.282;2023-02-04T02:25:52;102707.13;;;8.04;76.15
20942;BME280;10630;53.734;10.282;2023-02-04T02:28:19;102717.56;;;8.20;76.33
20942;BME280;10630;53.734;10.282;2023-02-04T02:30:46;102722.25;;;8.29;74.44
20942;BME280;10630;53.734;10.282;2023-02-04T02:33:15;102725.44;;;8.21;74.13
20942;BME280;10630;53.734;10.282;2023-02-04T02:35:44;102731.31;;;7.99;74.74
20942;BME280;10630;53.734;10.282;2023-02-04T02:38:14;102725.34;;;7.96;74.17
20942;BME280;10630;53.734;10.282;2023-02-04T02:40:41;102731.53;;;7.96;74.08
20942;BME280;10630;53.734;10.282;2023-02-04T02:43:12;102744.84;;;7.95;73.12
20942;BME280;10630;53.734;10.282;2023-02-04T02:45:41;102747.44;;;7.96;72.60
20942;BME280;10630;53.734;10.282;2023-02-04T02:48:09;102757.50;;;7.06;73.93
20942;BME280;10630;53.734;10.282;2023-02-04T02:50:37;102757.88;;;7.14;75.39
20942;BME280;10630;53.734;10.282;2023-02-04T02:53:04;102763.94;;;7.16;76.27
20942;BME280;10630;53.734;10.282;2023-02-04T02:55:31;102768.28;;;7.32;74.33
20942;BME280;10630;53.734;10.282;2023-02-04T02:57:59;102781.09;;;6.94;74.18
20942;BME280;10630;53.734;10.282;2023-02-04T03:00:27;102785.09;;;6.10;77.78
20942;BME280;10630;53.734;10.282;2023-02-04T03:02:59;102778.75;;;6.45;80.49
20942;BME280;10630;53.734;10.282;2023-02-04T03:05:28;102783.41;;;7.44;77.14
20942;BME280;10630;53.734;10.282;2023-02-04T03:07:56;102799.44;;;6.83;76.65
20942;BME280;10630;53.734;10.282;2023-02-04T03:10:23;102801.28;;;6.97;77.74
20942;BME280;10630;53.734;10.282;2023-02-04T03:12:50;102801.19;;;7.42;77.23
20942;BME280;10630;53.734;10.282;2023-02-04T03:15:17;102809.63;;;7.34;75.52
20942;BME280;10630;53.734;10.282;2023-02-04T03:17:44;102818.22;;;7.52;76.91
20942;BME280;10630;53.734;10.282;2023-02-04T03:20:13;102817.28;;;7.68;75.38
20942;BME280;10630;53.734;10.282;2023-02-04T03:22:41;102830.53;;;7.53;74.18
20942;BME280;10630;53.734;10.282;2023-02-04T03:25:08;102829.19;;;7.75;74.54
20942;BME280;10630;53.734;10.282;2023-02-04T03:27:35;102840.56;;;7.34;74.59
20942;BME280;10630;53.734;10.282;2023-02-04T03:30:03;102843.88;;;7.37;74.92
20942;BME280;10630;53.734;10.282;2023-02-04T03:32:30;102851.16;;;7.34;75.56
20942;BME280;10630;53.734;10.282;2023-02-04T03:34:57;102847.19;;;7.55;74.85
20942;BME280;10630;53.734;10.282;2023-02-04T03:37:24;102862.66;;;7.18;74.94
20942;BME280;10630;53.734;10.282;2023-02-04T03:39:51;102863.09;;;7.70;75.39
20942;BME280;10630;53.734;10.282;2023-02-04T03:42:18;102879.28;;;7.51;73.72
20942;BME280;10630;53.734;10.282;2023-02-04T03:44:45;102883.19;;;7.15;75.44
20942;BME280;10630;53.734;10.282;2023-02-04T03:47:11;102893.16;;;7.25;76.12
20942;BME280;10630;53.734;10.282;2023-02-04T03:49:38;102897.13;;;7.33;77.63
20942;BME280;10630;53.734;10.282;2023-02-04T03:52:07;102904.81;;;7.52;76.45
20942;BME280;10630;53.734;10.282;2023-02-04T03:54:35;102911.94;;;7.80;75.47
20942;BME280;10630;53.734;10.282;2023-02-04T03:57:01;102915.97;;;8.15;72.80
20942;BME280;10630;53.734;10.282;2023-02-04T03:59:28;102935.03;;;7.64;72.55
20942;BME280;10630;53.734;10.282;2023-02-04T04:01:54;102946.63;;;7.02;76.46
20942;BME280;10630;53.734;10.282;2023-02-04T04:04:22;102946.97;;;6.95;78.71
20942;BME280;10630;53.734;10.282;2023-02-04T04:06:48;102948.16;;;7.06;78.79
20942;BME280;10630;53.734;10.282;2023-02-04T04:09:16;102960.13;;;7.58;76.24
20942;BME280;10630;53.734;10.282;2023-02-04T04:11:45;102966.00;;;6.40;79.74
20942;BME280;10630;53.734;10.282;2023-02-04T04:14:12;102982.16;;;6.33;79.79
20942;BME280;10630;53.734;10.282;2023-02-04T04:16:39;102974.84;;;6.71;79.55
20942;BME280;10630;53.734;10.282;2023-02-04T04:19:06;102977.88;;;7.11;77.76
20942;BME280;10630;53.734;10.282;2023-02-04T04:21:32;102990.75;;;7.17;77.18
20942;BME280;10630;53.734;10.282;2023-02-04T04:23:59;102992.03;;;7.71;76.10
20942;BME280;10630;53.734;10.282;2023-02-04T04:26:25;102991.13;;;8.15;72.75
20942;BME280;10630;53.734;10.282;2023-02-04T04:28:52;102977.28;;;8.39;71.38
20942;BME280;10630;53.734;10.282;2023-02-04T04:31:19;102975.97;;;8.03;70.98
20942;BME280;10630;53.734;10.282;2023-02-04T04:33:46;102985.06;;;8.13;72.02
20942;BME280;10630;53.734;10.282;2023-02-04T04:36:14;102981.25;;;8.17;71.13
20942;BME280;10630;53.734;10.282;2023-02-04T04:38:41;102976.91;;;8.31;71.21
20942;BME280;10630;53.734;10.282;2023-02-04T04:41:07;102981.47;;;8.00;70.89
20942;BME280;10630;53.734;10.282;2023-02-04T04:43:34;102993.66;;;7.73;72.28
20942;BME280;10630;53.734;10.282;2023-02-04T04:46:01;103000.97;;;8.13;72.12
20942;BME280;10630;53.734;10.282;2023-02-04T04:48:28;102999.56;;;8.07;71.35
20942;BME280;10630;53.734;10.282;2023-02-04T04:50:55;102995.13;;;8.08;72.03
20942;BME280;10630;53.734;10.282;2023-02-04T04:53:24;103000.63;;;7.60;73.96
20942;BME280;10630;53.734;10.282;2023-02-04T04:55:50;103000.94;;;7.70;73.77
20942;BME280;10630;53.734;10.282;2023-02-04T04:58:17;103006.13;;;7.26;73.29
20942;BME280;10630;53.734;10.282;2023-02-04T05:00:44;103001.72;;;7.11;74.88
20942;BME280;10630;53.734;10.282;2023-02-04T05:03:12;102995.69;;;6.77;73.88
20942;BME280;10630;53.734;10.282;2023-02-04T05:05:39;102998.47;;;7.06;73.83
20942;BME280;10630;53.734;10.282;2023-02-04T05:08:06;103008.66;;;6.97;73.77
20942;BME280;10630;53.734;10.282;2023-02-04T05:10:39;103013.09;;;6.81;75.20
20942;BME280;10630;53.734;10.282;2023-02-04T05:13:05;103016.50;;;7.15;74.59
20942;BME280;10630;53.734;10.282;2023-02-04T05:15:32;103027.88;;;6.69;74.23
20942;BME280;10630;53.734;10.282;2023-02-04T05:18:00;103029.50;;;6.88;72.96
20942;BME280;10630;53.734;10.282;2023-02-04T05:20:27;103044.13;;;6.29;72.81
20942;BME280;10630;53.734;10.282;2023-02-04T05:22:56;103049.88;;;6.38;72.66
20942;BME280;10630;53.734;10.282;2023-02-04T05:25:26;103053.88;;;6.45;73.71
20942;BME280;10630;53.734;10.282;2023-02-04T05:27:54;103061.66;;;6.14;72.54
20942;BME280;10630;53.734;10.282;2023-02-04T05:30:21;103055.53;;;6.95;71.75
20942;BME280;10630;53.734;10.282;2023-02-04T05:32:48;103060.66;;;7.15;70.05
20942;BME280;10630;53.734;10.282;2023-02-04T05:35:15;103063.31;;;6.67;70.53
20942;BME280;10630;53.734;10.282;2023-02-04T05:37:42;103061.25;;;7.04;70.14
20942;BME280;10630;53.734;10.282;2023-02-04T05:40:10;103071.50;;;7.26;68.44
20942;BME280;10630;53.734;10.282;2023-02-04T05:42:36;103075.69;;;6.82;69.03
20942;BME280;10630;53.734;10.282;2023-02-04T05:45:03;103081.09;;;6.96;69.46
20942;BME280;10630;53.734;10.282;2023-02-04T05:47:30;103085.09;;;7.04;71.20
20942;BME280;10630;53.734;10.282;2023-02-04T05:49:57;103091.16;;;7.06;70.90
20942;BME280;10630;53.734;10.282;2023-02-04T05:52:24;103100.91;;;6.89;71.75
20942;BME280;10630;53.734;10.282;2023-02-04T05:54:52;103103.63;;;6.88;72.43
20942;BME280;10630;53.734;10.282;2023-02-04T05:57:19;103100.94;;;6.72;72.39
20942;BME280;10630;53.734;10.282;2023-02-04T05:59:46;103107.69;;;6.61;73.12
20942;BME280;10630;53.734;10.282;2023-02-04T06:02:12;103113.63;;;6.49;73.75
20942;BME280;10630;53.734;10.282;2023-02-04T06:04:39;103113.28;;;6.22;74.85
20942;BME280;10630;53.734;10.282;2023-02-04T06:07:05;103117.66;;;6.23;76.05
20942;BME280;10630;53.734;10.282;2023-02-04T06:09:32;103120.41;;;6.37;75.58
20942;BME280;10630;53.734;10.282;2023-02-04T06:11:59;103125.81;;;6.36;74.81
20942;BME280;10630;53.734;10.282;2023-02-04T06:14:25;103126.28;;;6.26;75.47
20942;BME280;10630;53.734;10.282;2023-02-04T06:16:52;103134.94;;;6.12;75.96
20942;BME280;10630;53.734;10.282;2023-02-04T06:19:19;103133.59;;;6.21;75.99
20942;BME280;10630;53.734;10.282;2023-02-04T06:21:46;103138.34;;;6.14;75.84
20942;BME280;10630;53.734;10.282;2023-02-04T06:24:13;103142.69;;;6.15;75.85
20942;BME280;10630;53.734;10.282;2023-02-04T06:26:41;103153.44;;;6.12;76.00
20942;BME280;10630;53.734;10.282;2023-02-04T06:29:09;103160.22;;;6.00;75.72
20942;BME280;10630;53.734;10.282;2023-02-04T06:31:38;103167.97;;;6.04;76.15
20942;BME280;10630;53.734;10.282;2023-02-04T06:34:06;103165.50;;;6.00;76.17
20942;BME280;10630;53.734;10.282;2023-02-04T06:36:33;103169.50;;;5.90;76.47
20942;BME280;10630;53.734;10.282;2023-02-04T06:39:03;103178.66;;;5.83;76.19
20942;BME280;10630;53.734;10.282;2023-02-04T06:41:30;103185.97;;;5.78;77.04
20942;BME280;10630;53.734;10.282;2023-02-04T06:43:58;103195.72;;;5.95;76.93
20942;BME280;10630;53.734;10.282;2023-02-04T06:46:25;103190.94;;;5.84;77.18
20942;BME280;10630;53.734;10.282;2023-02-04T06:48:52;103182.75;;;5.71;77.39
20942;BME280;10630;53.734;10.282;2023-02-04T06:51:19;103191.41;;;5.75;77.51
20942;BME280;10630;53.734;10.282;2023-02-04T06:53:47;103196.53;;;5.78;77.07
20942;BME280;10630;53.734;10.282;2023-02-04T06:56:14;103206.66;;;5.87;77.13
20942;BME280;10630;53.734;10.282;2023-02-04T06:58:41;103212.53;;;5.75;77.25
20942;BME280;10630;53.734;10.282;2023-02-04T07:01:08;103215.44;;;5.88;77.05
20942;BME280;10630;53.734;10.282;2023-02-04T07:03:37;103218.72;;;5.93;77.31
20942;BME280;10630;53.734;10.282;2023-02-04T07:06:04;103227.78;;;5.87;77.29
20942;BME280;10630;53.734;10.282;2023-02-04T07:08:31;103230.50;;;6.05;76.97
20942;BME280;10630;53.734;10.282;2023-02-04T07:10:58;103234.25;;;6.00;77.00
20942;BME280;10630;53.734;10.282;2023-02-04T07:13:27;103247.00;;;6.10;77.25
20942;BME280;10630;53.734;10.282;2023-02-04T07:15:54;103251.25;;;6.31;76.40
20942;BME280;10630;53.734;10.282;2023-02-04T07:18:20;103260.22;;;6.10;76.08
20942;BME280;10630;53.734;10.282;2023-02-04T07:20:47;103263.16;;;6.04;76.56
20942;BME280;10630;53.734;10.282;2023-02-04T07:23:14;103267.09;;;5.95;77.34
20942;BME280;10630;53.734;10.282;2023-02-04T07:25:41;103276.78;;;5.94;77.35
20942;BME280;10630;53.734;10.282;2023-02-04T07:28:10;103263.28;;;6.20;77.09
20942;BME280;10630;53.734;10.282;2023-02-04T07:30:38;103268.81;;;6.15;76.47
20942;BME280;10630;53.734;10.282;2023-02-04T07:33:05;103279.03;;;6.04;76.90
20942;BME280;10630;53.734;10.282;2023-02-04T07:35:32;103276.38;;;6.04;77.27
20942;BME280;10630;53.734;10.282;2023-02-04T07:37:59;103282.03;;;6.32;76.82
20942;BME280;10630;53.734;10.282;2023-02-04T07:40:25;103289.75;;;6.37;76.30
20942;BME280;10630;53.734;10.282;2023-02-04T07:42:51;103286.88;;;6.42;75.51
20942;BME280;10630;53.734;10.282;2023-02-04T07:45:18;103285.16;;;6.41;76.10
20942;BME280;10630;53.734;10.282;2023-02-04T07:47:44;103288.75;;;6.40;76.05
20942;BME280;10630;53.734;10.282;2023-02-04T07:50:11;103292.16;;;6.42;75.38
20942;BME280;10630;53.734;10.282;2023-02-04T07:52:39;103296.81;;;6.19;74.93
20942;BME280;10630;53.734;10.282;2023-02-04T07:55:07;103294.25;;;6.17;76.75
20942;BME280;10630;53.734;10.282;2023-02-04T07:57:35;103293.56;;;6.67;76.19
20942;BME280;10630;53.734;10.282;2023-02-04T08:00:02;103305.47;;;6.40;75.75
20942;BME280;10630;53.734;10.282;2023-02-04T08:02:29;103306.03;;;6.82;75.90
20942;BME280;10630;53.734;10.282;2023-02-04T08:04:56;103301.88;;;7.11;75.29
20942;BME280;10630;53.734;10.282;2023-02-04T08:07:23;103304.56;;;7.27;75.08
20942;BME280;10630;53.734;10.282;2023-02-04T08:09:50;103306.41;;;7.25;74.66
20942;BME280;10630;53.734;10.282;2023-02-04T08:12:16;103315.06;;;7.29;74.38
20942;BME280;10630;53.734;10.282;2023-02-04T08:14:44;103309.63;;;7.48;75.08
20942;BME280;10630;53.734;10.282;2023-02-04T08:17:10;103316.69;;;7.65;74.28
20942;BME280;10630;53.734;10.282;2023-02-04T08:19:37;103320.97;;;7.68;73.92
20942;BME280;10630;53.734;10.282;2023-02-04T08:22:04;103318.22;;;7.53;73.79
20942;BME280;10630;53.734;10.282;2023-02-04T08:24:32;103326.06;;;7.39;74.13
20942;BME280;10630;53.734;10.282;2023-02-04T08:26:59;103325.28;;;7.19;74.07
20942;BME280;10630;53.734;10.282;2023-02-04T08:29:26;103324.44;;;7.52;73.78
20942;BME280;10630;53.734;10.282;2023-02-04T08:31:53;103324.34;;;7.38;73.36
20942;BME280;10630;53.734;10.282;2023-02-04T08:34:20;103326.69;;;7.26;72.86
20942;BME280;10630;53.734;10.282;2023-02-04T08:36:48;103334.50;;;7.12;74.15
20942;BME280;10630;53.734;10.282;2023-02-04T08:39:15;103338.97;;;7.11;73.65
20942;BME280;10630;53.734;10.282;2023-02-04T08:41:42;103331.34;;;7.39;73.87
20942;BME280;10630;53.734;10.282;2023-02-04T08:44:08;103344.19;;;7.47;72.90
20942;BME280;10630;53.734;10.282;2023-02-04T08:46:37;103337.50;;;7.39;73.52
20942;BME280;10630;53.734;10.282;2023-02-04T08:49:04;103335.13;;;7.51;72.59
20942;BME280;10630;53.734;10.282;2023-02-04T08:51:31;103342.31;;;7.65;72.90
20942;BME280;10630;53.734;10.282;2023-02-04T08:53:59;103343.53;;;7.75;72.18
20942;BME280;10630;53.734;10.282;2023-02-04T08:56:25;103343.78;;;7.54;72.18
20942;BME280;10630;53.734;10.282;2023-02-04T08:58:52;103348.81;;;7.59;72.16
20942;BME280;10630;53.734;10.282;2023-02-04T09:01:21;103344.19;;;7.47;71.82
20942;BME280;10630;53.734;10.282;2023-02-04T09:03:52;103355.03;;;7.24;73.36
20942;BME280;10630;53.734;10.282;2023-02-04T09:06:22;103368.13;;;7.45;73.82
20942;BME280;10630;53.734;10.282;2023-02-04T09:08:50;103364.13;;;6.85;74.26
20942;BME280;10630;53.734;10.282;2023-02-04T09:11:19;103361.94;;;7.11;75.00
20942;BME280;10630;53.734;10.282;2023-02-04T09:13:46;103366.81;;;7.70;74.05
20942;BME280;10630;53.734;10.282;2023-02-04T09:16:20;103367.41;;;7.75;71.46
20942;BME280;10630;53.734;10.282;2023-02-04T09:18:49;103374.47;;;7.58;73.57
20942;BME280;10630;53.734;10.282;2023-02-04T09:21:21;103379.72;;;7.76;73.23
20942;BME280;10630;53.734;10.282;2023-02-04T09:23:49;103391.03;;;7.46;73.21
20942;BME280;10630;53.734;10.282;2023-02-04T09:26:20;103395.81;;;7.55;73.73
20942;BME280;10630;53.734;10.282;2023-02-04T09:28:47;103394.25;;;7.18;72.73
20942;BME280;10630;53.734;10.282;2023-02-04T09:31:16;103403.47;;;7.10;74.36
20942;BME280;10630;53.734;10.282;2023-02-04T09:33:45;103399.19;;;7.08;73.92
20942;BME280;10630;53.734;10.282;2023-02-04T09:36:13;103394.84;;;7.74;74.39
20942;BME280;10630;53.734;10.282;2023-02-04T09:38:40;103400.94;;;7.76;71.99
20942;BME280;10630;53.734;10.282;2023-02-04T09:41:09;103396.00;;;8.34;70.89
20942;BME280;10630;53.734;10.282;2023-02-04T09:43:40;103404.13;;;8.15;69.50
20942;BME280;10630;53.734;10.282;2023-02-04T09:46:20;103411.38;;;7.28;72.90
20942;BME280;10630;53.734;10.282;2023-02-04T09:48:48;103416.72;;;6.56;75.51
20942;BME280;10630;53.734;10.282;2023-02-04T09:51:36;103407.28;;;7.05;74.80
20942;BME280;10630;53.734;10.282;2023-02-04T09:57:04;103403.19;;;7.33;72.70
20942;BME280;10630;53.734;10.282;2023-02-04T09:59:35;103405.38;;;7.42;72.88
20942;BME280;10630;53.734;10.282;2023-02-04T10:02:02;103410.97;;;7.53;73.39
20942;BME280;10630;53.734;10.282;2023-02-04T10:04:34;103407.03;;;8.10;72.02
20942;BME280;10630;53.734;10.282;2023-02-04T10:07:04;103413.22;;;8.59;70.33
20942;BME280;10630;53.734;10.282;2023-02-04T10:09:39;103417.22;;;8.34;67.64
20942;BME280;10630;53.734;10.282;2023-02-04T10:12:08;103423.50;;;7.16;69.53
20942;BME280;10630;53.734;10.282;2023-02-04T10:14:36;103424.69;;;8.27;69.23
20942;BME280;10630;53.734;10.282;2023-02-04T10:17:04;103419.91;;;8.18;68.16
20942;BME280;10630;53.734;10.282;2023-02-04T10:19:32;103426.97;;;8.17;69.37
20942;BME280;10630;53.734;10.282;2023-02-04T10:22:06;103423.31;;;7.54;70.34
20942;BME280;10630;53.734;10.282;2023-02-04T10:24:36;103421.31;;;7.91;70.10
20942;BME280;10630;53.734;10.282;2023-02-04T10:27:07;103419.78;;;8.35;68.59
20942;BME280;10630;53.734;10.282;2023-02-04T10:29:35;103416.97;;;9.01;68.47
20942;BME280;10630;53.734;10.282;2023-02-04T10:32:02;103412.41;;;9.48;66.15
20942;BME280;10630;53.734;10.282;2023-02-04T10:34:39;103419.59;;;9.17;64.20
20942;BME280;10630;53.734;10.282;2023-02-04T10:37:11;103429.47;;;8.84;63.05
20942;BME280;10630;53.734;10.282;2023-02-04T10:39:41;103431.41;;;8.97;65.31
20942;BME280;10630;53.734;10.282;2023-02-04T10:42:23;103438.69;;;8.93;64.60
20942;BME280;10630;53.734;10.282;2023-02-04T10:44:57;103438.16;;;9.62;62.84
20942;BME280;10630;53.734;10.282;2023-02-04T10:47:27;103438.84;;;8.60;61.72
20942;BME280;10630;53.734;10.282;2023-02-04T10:50:04;103437.84;;;9.38;62.74
20942;BME280;10630;53.734;10.282;2023-02-04T10:52:43;103436.97;;;9.23;61.67
20942;BME280;10630;53.734;10.282;2023-02-04T10:55:18;103434.38;;;9.80;61.24
20942;BME280;10630;53.734;10.282;2023-02-04T10:57:50;103450.16;;;9.24;60.73
20942;BME280;10630;53.734;10.282;2023-02-04T11:00:21;103448.03;;;9.74;62.58
20942;BME280;10630;53.734;10.282;2023-02-04T11:03:03;103450.78;;;10.02;60.42
20942;BME280;10630;53.734;10.282;2023-02-04T11:05:34;103449.91;;;10.44;59.19
20942;BME280;10630;53.734;10.282;2023-02-04T11:08:03;103449.91;;;10.01;59.02
20942;BME280;10630;53.734;10.282;2023-02-04T11:10:51;103447.25;;;10.30;58.07
20942;BME280;10630;53.734;10.282;2023-02-04T11:13:22;103452.25;;;10.35;57.21
20942;BME280;10630;53.734;10.282;2023-02-04T11:16:45;103446.06;;;10.49;56.55
20942;BME280;10630;53.734;10.282;2023-02-04T11:18:49;103454.59;;;9.97;55.58
20942;BME280;10630;53.734;10.282;2023-02-04T11:26:46;103449.53;;;9.35;59.46
20942;BME280;10630;53.734;10.282;2023-02-04T11:37:05;103446.47;;;9.27;56.93
20942;BME280;10630;53.734;10.282;2023-02-04T11:39:38;103449.53;;;8.74;59.53
20942;BME280;10630;53.734;10.282;2023-02-04T11:44:51;103451.94;;;9.54;57.79
20942;BME280;10630;53.734;10.282;2023-02-04T11:47:18;103449.63;;;9.03;58.75
20942;BME280;10630;53.734;10.282;2023-02-04T11:49:52;103455.00;;;8.87;58.89
20942;BME280;10630;53.734;10.282;2023-02-04T11:52:21;103449.81;;;7.88;60.24
20942;BME280;10630;53.734;10.282;2023-02-04T11:54:57;103450.72;;;9.74;62.34
20942;BME280;10630;53.734;10.282;2023-02-04T11:57:24;103452.28;;;10.20;58.85
20942;BME280;10630;53.734;10.282;2023-02-04T11:59:52;103460.19;;;10.22;56.73
20942;BME280;10630;53.734;10.282;2023-02-04T12:02:23;103467.44;;;10.61;55.52
20942;BME280;10630;53.734;10.282;2023-02-04T12:04:57;103461.28;;;10.61;54.85
20942;BME280;10630;53.734;10.282;2023-02-04T12:07:33;103464.25;;;10.69;55.21
20942;BME280;10630;53.734;10.282;2023-02-04T12:12:51;103464.13;;;10.85;53.76
20942;BME280;10630;53.734;10.282;2023-02-04T12:15:24;103471.41;;;10.96;52.63
20942;BME280;10630;53.734;10.282;2023-02-04T12:20:55;103484.56;;;10.85;53.23
20942;BME280;10630;53.734;10.282;2023-02-04T12:23:24;103481.91;;;11.25;52.94
20942;BME280;10630;53.734;10.282;2023-02-04T12:25:51;103473.16;;;11.23;53.09
20942;BME280;10630;53.734;10.282;2023-02-04T12:28:33;103480.97;;;11.65;52.44
20942;BME280;10630;53.734;10.282;2023-02-04T12:31:00;103487.72;;;11.45;51.71
20942;BME280;10630;53.734;10.282;2023-02-04T12:33:27;103492.41;;;10.73;53.16
20942;BME280;10630;53.734;10.282;2023-02-04T12:35:55;103488.88;;;11.00;53.33
20942;BME280;10630;53.734;10.282;2023-02-04T12:38:35;103481.50;;;11.44;52.77
20942;BME280;10630;53.734;10.282;2023-02-04T12:41:03;103478.44;;;11.89;53.10
20942;BME280;10630;53.734;10.282;2023-02-04T12:43:30;103473.47;;;11.96;52.21
20942;BME280;10630;53.734;10.282;2023-02-04T12:45:59;103481.72;;;11.80;50.09
20942;BME280;10630;53.734;10.282;2023-02-04T12:48:29;103484.28;;;12.20;50.00
20942;BME280;10630;53.734;10.282;2023-02-04T12:50:58;103487.00;;;12.31;49.51
20942;BME280;10630;53.734;10.282;2023-02-04T12:53:25;103490.91;;;11.50;50.49
20942;BME280;10630;53.734;10.282;2023-02-04T12:55:53;103495.97;;;11.14;50.34
20942;BME280;10630;53.734;10.282;2023-02-04T12:58:23;103497.47;;;10.07;52.86
20942;BME280;10630;53.734;10.282;2023-02-04T13:00:50;103496.63;;;8.54;54.95
20942;BME280;10630;53.734;10.282;2023-02-04T13:03:18;103494.00;;;9.62;55.70
20942;BME280;10630;53.734;10.282;2023-02-04T13:05:47;103504.59;;;8.05;56.73
20942;BME280;10630;53.734;10.282;2023-02-04T13:08:14;103503.38;;;7.95;59.47
20942;BME280;10630;53.734;10.282;2023-02-04T13:10:43;103507.69;;;7.80;59.07
20942;BME280;10630;53.734;10.282;2023-02-04T13:13:10;103516.44;;;7.64;59.62
20942;BME280;10630;53.734;10.282;2023-02-04T13:15:38;103510.94;;;8.02;59.83
20942;BME280;10630;53.734;10.282;2023-02-04T13:18:05;103512.38;;;8.90;60.34
20942;BME280;10630;53.734;10.282;2023-02-04T13:20:33;103507.84;;;9.38;57.14
20942;BME280;10630;53.734;10.282;2023-02-04T13:23:00;103503.25;;;9.71;54.68